createdAt,value
2023-07-22T00:02:08.939Z,2.50
2023-07-22T00:04:36.957Z,2.63
2023-07-22T00:07:05.311Z,2.33
2023-07-22T00:09:36.206Z,3.13
2023-07-22T00:12:04.640Z,3.60
2023-07-22T00:14:32.693Z,3.07
2023-07-22T00:17:00.678Z,3.73
2023-07-22T00:19:28.706Z,3.00
2023-07-22T00:21:56.701Z,2.63
2023-07-22T00:24:24.737Z,3.10
2023-07-22T00:26:54.060Z,3.30
2023-07-22T00:29:22.010Z,2.60
2023-07-22T00:31:50.307Z,3.17
2023-07-22T00:34:18.610Z,2.63
2023-07-22T00:36:47.507Z,4.40
2023-07-22T00:39:15.952Z,4.20
2023-07-22T00:41:45.460Z,3.00
2023-07-22T00:44:15.358Z,2.80
2023-07-22T00:46:43.387Z,4.10
2023-07-22T00:49:11.855Z,2.80
2023-07-22T00:51:40.161Z,2.73
2023-07-22T00:54:08.374Z,3.10
2023-07-22T00:56:38.653Z,3.53
2023-07-22T00:59:09.859Z,4.33
2023-07-22T01:01:39.264Z,3.20
2023-07-22T01:04:08.285Z,3.13
2023-07-22T01:06:37.300Z,3.63
2023-07-22T01:09:10.198Z,3.23
2023-07-22T01:11:38.342Z,2.90
2023-07-22T01:14:06.335Z,3.97
2023-07-22T01:16:34.440Z,2.60
2023-07-22T01:19:05.707Z,3.67
2023-07-22T01:21:35.071Z,3.07
2023-07-22T01:24:04.749Z,3.00
2023-07-22T01:26:32.767Z,2.67
2023-07-22T01:29:07.245Z,2.53
2023-07-22T01:31:37.051Z,3.13
2023-07-22T01:34:06.070Z,3.13
2023-07-22T01:36:34.255Z,2.77
2023-07-22T01:39:02.328Z,2.90
2023-07-22T01:41:31.711Z,2.63
2023-07-22T01:44:00.817Z,3.00
2023-07-22T01:46:29.086Z,2.73
2023-07-22T01:48:58.134Z,2.70
2023-07-22T01:51:26.569Z,2.97
2023-07-22T01:53:54.640Z,2.97
2023-07-22T01:56:22.681Z,2.90
2023-07-22T01:58:52.048Z,2.60
2023-07-22T02:01:20.061Z,2.97
2023-07-22T02:03:48.626Z,3.00
2023-07-22T02:06:16.672Z,3.47
2023-07-22T02:08:44.624Z,3.30
2023-07-22T02:11:15.033Z,4.87
2023-07-22T02:13:43.064Z,3.17
2023-07-22T02:16:13.548Z,3.37
2023-07-22T02:18:41.849Z,3.73
2023-07-22T02:21:09.886Z,4.23
2023-07-22T02:23:37.866Z,3.30
2023-07-22T02:26:06.180Z,3.87
2023-07-22T02:28:35.275Z,4.97
2023-07-22T02:31:06.507Z,4.13
2023-07-22T02:33:35.928Z,4.30
2023-07-22T02:36:04.145Z,3.90
2023-07-22T02:38:32.171Z,5.13
2023-07-22T02:41:04.401Z,2.93
2023-07-22T02:43:32.530Z,5.20
2023-07-22T02:46:02.929Z,3.90
2023-07-22T02:48:31.063Z,2.40
2023-07-22T02:51:06.147Z,3.73
2023-07-22T02:53:34.556Z,2.90
2023-07-22T02:56:02.915Z,4.17
2023-07-22T02:58:30.984Z,2.80
2023-07-22T03:00:59.280Z,4.50
2023-07-22T03:03:27.806Z,2.70
2023-07-22T03:05:55.835Z,3.70
2023-07-22T03:08:26.181Z,4.40
2023-07-22T03:10:54.182Z,2.80
2023-07-22T03:13:22.183Z,3.80
2023-07-22T03:15:50.480Z,5.70
2023-07-22T03:18:18.485Z,4.03
2023-07-22T03:20:47.087Z,2.90
2023-07-22T03:23:15.178Z,3.60
2023-07-22T03:25:44.599Z,2.67
2023-07-22T03:28:13.115Z,3.20
2023-07-22T03:30:41.168Z,3.10
2023-07-22T03:33:09.370Z,2.93
2023-07-22T03:35:37.913Z,3.27
2023-07-22T03:38:06.913Z,3.20
2023-07-22T03:40:34.918Z,2.97
2023-07-22T03:43:04.240Z,4.50
2023-07-22T03:45:32.415Z,3.00
2023-07-22T03:48:02.110Z,5.17
2023-07-22T03:50:30.607Z,3.13
2023-07-22T03:52:58.615Z,3.77
2023-07-22T03:55:26.659Z,3.80
2023-07-22T03:57:54.674Z,3.17
2023-07-22T04:00:24.143Z,3.73
2023-07-22T04:02:52.195Z,3.60
2023-07-22T04:05:20.394Z,3.13
2023-07-22T04:07:48.446Z,2.60
2023-07-22T04:10:16.492Z,3.70
2023-07-22T04:12:44.535Z,3.10
2023-07-22T04:15:13.658Z,3.43
2023-07-22T04:17:43.263Z,4.57
2023-07-22T04:20:11.961Z,3.87
2023-07-22T04:22:39.969Z,4.10
2023-07-22T04:25:10.105Z,4.17
2023-07-22T04:27:38.350Z,2.77
2023-07-22T04:30:07.920Z,4.10
2023-07-22T04:32:36.028Z,3.00
2023-07-22T04:35:06.190Z,3.40
2023-07-22T04:37:34.471Z,3.50
2023-07-22T04:40:07.050Z,2.87
2023-07-22T04:42:35.030Z,3.90
2023-07-22T04:45:03.804Z,2.20
2023-07-22T04:47:31.802Z,2.83
2023-07-22T04:49:59.865Z,2.37
2023-07-22T04:52:29.193Z,2.70
2023-07-22T04:54:57.202Z,3.00
2023-07-22T04:57:25.199Z,3.03
2023-07-22T04:59:53.220Z,2.27
2023-07-22T05:02:21.184Z,2.53
2023-07-22T05:04:49.174Z,2.20
2023-07-22T05:07:17.189Z,2.67
2023-07-22T05:09:46.647Z,2.53
2023-07-22T05:12:14.718Z,2.50
2023-07-22T05:14:42.704Z,2.70
2023-07-22T05:17:10.732Z,3.70
2023-07-22T05:19:38.761Z,3.60
2023-07-22T05:22:06.836Z,2.70
2023-07-22T05:24:34.844Z,2.50
2023-07-22T05:27:09.720Z,1.83
2023-07-22T05:29:38.092Z,3.03
2023-07-22T05:32:14.034Z,2.30
2023-07-22T05:34:51.791Z,2.60
2023-07-22T05:37:19.811Z,2.97
2023-07-22T05:39:47.775Z,2.43
2023-07-22T05:42:17.211Z,2.57
2023-07-22T05:44:45.210Z,2.43
2023-07-22T05:47:13.208Z,2.83
2023-07-22T05:49:41.183Z,3.53
2023-07-22T05:52:09.552Z,2.83
2023-07-22T05:54:37.554Z,2.93
2023-07-22T05:57:06.005Z,2.67
2023-07-22T05:59:37.159Z,2.77
2023-07-22T06:02:06.324Z,2.13
2023-07-22T06:04:34.396Z,2.37
2023-07-22T06:07:02.382Z,2.53
2023-07-22T06:09:30.677Z,2.50
2023-07-22T06:11:58.646Z,2.90
2023-07-22T06:14:26.650Z,2.60
2023-07-22T06:16:55.996Z,2.50
2023-07-22T06:19:24.669Z,2.43
2023-07-22T06:21:52.657Z,1.90
2023-07-22T06:24:22.178Z,2.43
2023-07-22T06:26:50.254Z,3.30
2023-07-22T06:29:18.280Z,4.67
2023-07-22T06:31:46.325Z,2.93
2023-07-22T06:34:15.716Z,2.50
2023-07-22T06:36:43.745Z,2.07
2023-07-22T06:39:11.716Z,2.40
2023-07-22T06:41:39.790Z,1.80
2023-07-22T06:44:07.774Z,1.93
2023-07-22T06:46:35.789Z,1.80
2023-07-22T06:49:03.964Z,1.77
2023-07-22T06:51:33.328Z,2.07
2023-07-22T06:54:01.343Z,3.23
2023-07-22T06:56:29.505Z,1.63
2023-07-22T06:58:57.896Z,2.00
2023-07-22T07:01:26.074Z,1.47
2023-07-22T07:03:54.208Z,1.83
2023-07-22T07:06:22.358Z,1.60
2023-07-22T07:08:53.246Z,2.10
2023-07-22T07:11:21.321Z,1.63
2023-07-22T07:13:49.347Z,1.83
2023-07-22T07:16:25.430Z,1.70
2023-07-22T07:18:54.332Z,1.77
2023-07-22T07:21:22.706Z,1.80
2023-07-22T07:23:52.410Z,2.90
2023-07-22T07:26:21.781Z,1.87
2023-07-22T07:28:50.916Z,2.03
2023-07-22T07:31:19.095Z,1.50
2023-07-22T07:33:47.230Z,2.10
2023-07-22T07:36:15.800Z,1.97
2023-07-22T07:38:43.877Z,1.27
2023-07-22T07:41:13.832Z,2.50
2023-07-22T07:43:43.113Z,1.60
2023-07-22T07:46:16.091Z,1.47
2023-07-22T07:48:44.235Z,1.77
2023-07-22T07:51:13.103Z,2.10
2023-07-22T07:53:41.119Z,1.57
2023-07-22T07:56:09.522Z,1.30
2023-07-22T07:58:39.214Z,1.67
2023-07-22T08:01:07.648Z,1.80
2023-07-22T08:03:37.301Z,1.53
2023-07-22T08:06:07.575Z,1.80
2023-07-22T08:08:35.967Z,1.37
2023-07-22T08:11:05.476Z,1.87
2023-07-22T08:13:35.058Z,1.50
2023-07-22T08:16:05.839Z,1.60
2023-07-22T08:18:34.556Z,2.00
2023-07-22T08:21:03.744Z,1.10
2023-07-22T08:23:32.271Z,1.30
2023-07-22T08:26:00.271Z,2.03
2023-07-22T08:28:28.674Z,1.83
2023-07-22T08:30:57.463Z,1.60
2023-07-22T08:33:40.494Z,1.63
2023-07-22T08:36:10.236Z,1.50
2023-07-22T08:38:38.484Z,1.47
2023-07-22T08:41:06.553Z,1.40
2023-07-22T08:43:40.259Z,1.60
2023-07-22T08:46:09.347Z,2.17
2023-07-22T08:48:42.996Z,1.60
2023-07-22T08:51:17.146Z,1.63
2023-07-22T08:53:50.559Z,2.40
2023-07-22T08:56:29.367Z,1.60
2023-07-22T08:58:57.938Z,1.50
2023-07-22T09:01:26.385Z,1.47
2023-07-22T09:03:59.377Z,1.23
2023-07-22T09:06:27.894Z,1.37
2023-07-22T09:08:57.063Z,2.20
2023-07-22T09:11:26.249Z,1.57
2023-07-22T09:13:56.010Z,1.43
2023-07-22T09:16:26.903Z,1.50
2023-07-22T09:18:59.646Z,1.50
2023-07-22T09:21:29.094Z,1.23
2023-07-22T09:23:57.368Z,1.57
2023-07-22T09:26:25.647Z,1.37
2023-07-22T09:28:56.599Z,1.63
2023-07-22T09:31:25.839Z,1.40
2023-07-22T09:33:55.722Z,1.40
2023-07-22T09:36:25.303Z,1.93
2023-07-22T09:39:04.724Z,1.30
2023-07-22T09:41:33.128Z,1.40
2023-07-22T09:44:04.878Z,2.03
2023-07-22T09:46:35.045Z,1.37
2023-07-22T09:49:07.118Z,1.40
2023-07-22T09:51:49.175Z,1.47
2023-07-22T09:54:30.231Z,1.57
2023-07-22T09:56:58.440Z,1.40
2023-07-22T09:59:28.331Z,1.40
2023-07-22T10:01:57.197Z,1.50
2023-07-22T10:04:28.774Z,2.07
2023-07-22T10:06:58.671Z,1.53
2023-07-22T10:09:30.436Z,2.03
2023-07-22T10:11:58.541Z,1.20
2023-07-22T10:14:28.334Z,2.27
2023-07-22T10:16:57.784Z,1.60
2023-07-22T10:19:27.282Z,1.33
2023-07-22T10:21:55.668Z,1.70
2023-07-22T10:24:26.088Z,1.53
2023-07-22T10:26:54.805Z,1.37
2023-07-22T10:29:23.031Z,1.37
2023-07-22T10:31:54.290Z,1.73
2023-07-22T10:34:23.909Z,1.67
2023-07-22T10:36:52.134Z,1.50
2023-07-22T10:39:29.032Z,1.47
2023-07-22T10:42:05.540Z,2.23
2023-07-22T10:44:34.728Z,1.90
2023-07-22T10:47:04.801Z,1.73
2023-07-22T10:49:46.204Z,1.70
2023-07-22T10:52:15.373Z,1.97
2023-07-22T10:54:44.869Z,1.73
2023-07-22T10:57:26.232Z,1.60
2023-07-22T10:59:54.883Z,1.50
2023-07-22T11:02:27.644Z,2.20
2023-07-22T11:05:00.231Z,2.03
2023-07-22T11:07:35.878Z,1.70
2023-07-22T11:10:18.137Z,1.63
2023-07-22T11:12:47.561Z,2.00
2023-07-22T11:15:18.449Z,2.00
2023-07-22T11:17:46.718Z,1.63
2023-07-22T11:20:14.783Z,1.80
2023-07-22T11:22:44.719Z,1.87
2023-07-22T11:25:20.891Z,1.70
2023-07-22T11:27:48.996Z,2.30
2023-07-22T11:30:17.238Z,3.13
2023-07-22T11:32:46.227Z,1.87
2023-07-22T11:35:18.077Z,2.33
2023-07-22T11:37:46.110Z,3.10
2023-07-22T11:40:14.983Z,1.93
2023-07-22T11:42:46.426Z,1.67
2023-07-22T11:45:16.067Z,2.53
2023-07-22T11:47:45.746Z,2.33
2023-07-22T11:50:13.937Z,2.27
2023-07-22T11:52:42.014Z,1.73
2023-07-22T11:55:12.148Z,2.20
2023-07-22T11:57:44.592Z,2.30
2023-07-22T12:00:14.192Z,2.47
2023-07-22T12:02:43.738Z,2.03
2023-07-22T12:05:12.210Z,3.00
2023-07-22T12:07:41.514Z,2.73
2023-07-22T12:10:11.327Z,1.87
2023-07-22T12:12:42.801Z,2.60
2023-07-22T12:15:16.578Z,2.30
2023-07-22T12:17:49.059Z,2.50
2023-07-22T12:20:17.984Z,3.83
2023-07-22T12:22:46.090Z,2.03
2023-07-22T12:25:14.122Z,2.13
2023-07-22T12:27:42.177Z,2.67
2023-07-22T12:30:12.811Z,2.17
2023-07-22T12:32:41.067Z,2.27
2023-07-22T12:35:10.003Z,1.90
2023-07-22T12:37:38.751Z,1.90
2023-07-22T12:40:09.499Z,2.07
2023-07-22T12:42:38.201Z,2.33
2023-07-22T12:45:08.913Z,2.20
2023-07-22T12:47:38.870Z,2.77
2023-07-22T12:50:08.827Z,2.63
2023-07-22T12:52:37.102Z,2.60
2023-07-22T12:55:05.626Z,2.17
2023-07-22T12:57:33.696Z,2.60
2023-07-22T13:00:01.744Z,2.80
2023-07-22T13:02:30.922Z,3.33
2023-07-22T13:05:00.265Z,2.23
2023-07-22T13:07:28.250Z,2.43
2023-07-22T13:09:57.784Z,2.60
2023-07-22T13:12:25.899Z,2.13
2023-07-22T13:14:53.957Z,2.20
2023-07-22T13:17:22.070Z,2.43
2023-07-22T13:19:50.082Z,2.10
2023-07-22T13:22:19.424Z,2.80
2023-07-22T13:24:48.412Z,2.17
2023-07-22T13:27:16.406Z,2.63
2023-07-22T13:29:44.356Z,1.73
2023-07-22T13:32:12.439Z,2.53
2023-07-22T13:34:40.421Z,2.60
2023-07-22T13:37:08.435Z,2.33
2023-07-22T13:39:37.983Z,2.90
2023-07-22T13:42:06.533Z,2.33
2023-07-22T13:44:34.532Z,2.00
2023-07-22T13:47:02.723Z,2.40
2023-07-22T13:49:31.105Z,2.40
2023-07-22T13:51:59.108Z,2.40
2023-07-22T13:54:27.194Z,2.50
2023-07-22T13:56:56.542Z,3.53
2023-07-22T13:59:24.620Z,2.60
2023-07-22T14:01:52.689Z,4.60
2023-07-22T14:04:20.680Z,2.77
2023-07-22T14:06:48.633Z,2.80
2023-07-22T14:09:16.625Z,2.23
2023-07-22T14:11:44.706Z,5.40
2023-07-22T14:14:14.060Z,2.83
2023-07-22T14:16:42.379Z,2.63
2023-07-22T14:19:10.390Z,2.83
2023-07-22T14:21:38.410Z,3.83
2023-07-22T14:24:06.874Z,2.70
2023-07-22T14:26:34.835Z,2.87
2023-07-22T14:29:02.814Z,2.20
2023-07-22T14:31:32.337Z,3.00
2023-07-22T14:34:00.405Z,2.53
2023-07-22T14:36:28.422Z,2.20
2023-07-22T14:38:56.989Z,3.23
2023-07-22T14:41:25.755Z,2.67
2023-07-22T14:43:54.194Z,3.03
2023-07-22T14:46:22.167Z,3.10
2023-07-22T14:48:51.855Z,2.57
2023-07-22T14:51:19.874Z,3.20
2023-07-22T14:53:48.107Z,3.07
2023-07-22T14:56:16.173Z,2.73
2023-07-22T14:58:44.258Z,3.80
2023-07-22T15:01:12.332Z,2.13
2023-07-22T15:03:40.715Z,3.00
2023-07-22T15:06:10.162Z,2.87
2023-07-22T15:08:38.153Z,3.17
2023-07-22T15:11:06.411Z,4.97
2023-07-22T15:13:34.434Z,2.93
2023-07-22T15:16:02.423Z,3.43
2023-07-22T15:18:30.452Z,2.90
2023-07-22T15:20:58.410Z,2.57
2023-07-22T15:23:28.030Z,2.80
2023-07-22T15:25:56.009Z,2.53
2023-07-22T15:28:24.003Z,2.93
2023-07-22T15:30:52.025Z,3.00
2023-07-22T15:33:20.024Z,2.90
2023-07-22T15:35:47.990Z,2.43
2023-07-22T15:38:16.440Z,2.33
2023-07-22T15:40:45.810Z,2.47
2023-07-22T15:43:13.804Z,3.53
2023-07-22T15:45:42.275Z,2.17
2023-07-22T15:48:10.463Z,2.43
2023-07-22T15:50:38.475Z,2.73
2023-07-22T15:53:06.950Z,2.73
2023-07-22T15:55:34.950Z,2.20
2023-07-22T15:58:04.664Z,2.00
2023-07-22T16:00:32.674Z,2.80
2023-07-22T16:03:00.802Z,2.50
2023-07-22T16:05:28.864Z,2.73
2023-07-22T16:07:56.786Z,2.60
2023-07-22T16:10:24.852Z,2.47
2023-07-22T16:12:53.245Z,2.50
2023-07-22T16:15:22.704Z,3.30
2023-07-22T16:17:50.743Z,2.53
2023-07-22T16:20:19.802Z,2.77
2023-07-22T16:22:48.005Z,3.20
2023-07-22T16:25:16.170Z,2.57
2023-07-22T16:27:44.118Z,5.17
2023-07-22T16:30:12.590Z,6.97
2023-07-22T16:32:43.909Z,5.37
2023-07-22T16:35:12.242Z,3.67
2023-07-22T16:37:40.231Z,3.43
2023-07-22T16:40:11.996Z,2.03
2023-07-22T16:42:40.360Z,3.20
2023-07-22T16:45:09.661Z,3.50
2023-07-22T16:47:37.884Z,3.53
2023-07-22T16:50:09.514Z,3.30
2023-07-22T16:52:37.506Z,2.70
2023-07-22T16:55:06.216Z,2.47
2023-07-22T16:57:34.169Z,2.90
2023-07-22T17:00:02.266Z,2.80
2023-07-22T17:02:30.310Z,3.13
2023-07-22T17:04:58.346Z,2.63
2023-07-22T17:07:27.651Z,2.73
2023-07-22T17:09:55.642Z,2.73
2023-07-22T17:12:23.743Z,4.13
2023-07-22T17:15:00.325Z,2.83
2023-07-22T17:17:28.324Z,3.50
2023-07-22T17:19:56.360Z,3.13
2023-07-22T17:22:24.385Z,2.70
2023-07-22T17:24:53.859Z,2.60
2023-07-22T17:27:21.832Z,3.10
2023-07-22T17:29:49.824Z,2.40
2023-07-22T17:32:17.833Z,3.00
2023-07-22T17:34:45.829Z,3.30
2023-07-22T17:37:14.981Z,3.07
2023-07-22T17:39:43.070Z,3.50
2023-07-22T17:42:12.390Z,2.67
2023-07-22T17:44:44.659Z,3.10
2023-07-22T17:47:12.628Z,3.00
2023-07-22T17:49:40.613Z,2.97
2023-07-22T17:52:09.465Z,3.20
2023-07-22T17:54:37.443Z,3.87
2023-07-22T17:57:05.904Z,4.10
2023-07-22T17:59:35.223Z,2.90
2023-07-22T18:02:03.812Z,2.93
2023-07-22T18:04:31.785Z,2.73
2023-07-22T18:06:59.767Z,2.57
2023-07-22T18:09:27.762Z,2.80
2023-07-22T18:11:55.747Z,3.13
2023-07-22T18:14:23.747Z,3.00
2023-07-22T18:16:53.118Z,2.80
2023-07-22T18:19:21.187Z,3.00
2023-07-22T18:21:49.196Z,2.90
2023-07-22T18:24:17.695Z,2.80
2023-07-22T18:26:45.708Z,2.60
2023-07-22T18:29:13.664Z,3.33
2023-07-22T18:31:41.658Z,2.70
2023-07-22T18:34:10.978Z,3.43
2023-07-22T18:36:38.957Z,3.10
2023-07-22T18:39:06.955Z,3.10
2023-07-22T18:41:34.968Z,2.90
2023-07-22T18:44:02.951Z,3.70
2023-07-22T18:46:30.998Z,2.90
2023-07-22T18:48:59.059Z,3.30
2023-07-22T18:51:32.537Z,3.37
2023-07-22T18:54:00.636Z,3.67
2023-07-22T18:56:28.953Z,3.53
2023-07-22T18:58:56.941Z,3.30
2023-07-22T19:01:25.229Z,3.80
2023-07-22T19:03:53.464Z,3.00
2023-07-22T19:06:21.452Z,3.60
2023-07-22T19:08:50.782Z,3.30
2023-07-22T19:11:18.794Z,2.90
2023-07-22T19:13:46.760Z,2.97
2023-07-22T19:16:14.769Z,4.50
2023-07-22T19:18:42.925Z,4.30
2023-07-22T19:21:10.897Z,4.30
2023-07-22T19:23:38.856Z,3.87
2023-07-22T19:26:08.231Z,3.60
2023-07-22T19:28:36.241Z,3.87
2023-07-22T19:31:04.266Z,3.47
2023-07-22T19:33:32.482Z,3.80
2023-07-22T19:36:06.364Z,4.97
2023-07-22T19:38:35.096Z,4.90
2023-07-22T19:41:12.810Z,4.53
2023-07-22T19:43:42.966Z,3.93
2023-07-22T19:46:13.268Z,3.70
2023-07-22T19:48:41.735Z,4.30
2023-07-22T19:51:11.156Z,5.30
2023-07-22T19:53:39.105Z,3.57
2023-07-22T19:56:09.680Z,3.63
2023-07-22T19:58:39.827Z,4.37
2023-07-22T20:01:07.946Z,4.50
2023-07-22T20:03:41.061Z,4.87
2023-07-22T20:06:10.446Z,4.03
2023-07-22T20:08:39.445Z,3.23
2023-07-22T20:11:07.866Z,4.50
2023-07-22T20:13:36.038Z,3.17
2023-07-22T20:16:05.825Z,4.80
2023-07-22T20:18:33.959Z,3.33
2023-07-22T20:21:01.974Z,5.50
2023-07-22T20:23:29.954Z,4.40
2023-07-22T20:25:58.534Z,5.77
2023-07-22T20:28:26.600Z,4.00
2023-07-22T20:30:55.682Z,6.10
2023-07-22T20:33:27.237Z,4.07
2023-07-22T20:35:56.204Z,8.73
2023-07-22T20:38:24.242Z,7.10
2023-07-22T20:40:52.386Z,4.20
2023-07-22T20:43:20.437Z,6.80
2023-07-22T20:45:48.407Z,5.47
2023-07-22T20:48:16.400Z,4.20
2023-07-22T20:50:45.750Z,4.23
2023-07-22T20:53:13.741Z,4.03
2023-07-22T20:55:41.752Z,6.83
2023-07-22T20:58:09.702Z,8.10
2023-07-22T21:00:38.181Z,4.07
2023-07-22T21:03:06.191Z,4.50
2023-07-22T21:05:34.581Z,4.97
2023-07-22T21:08:03.982Z,6.67
2023-07-22T21:10:31.948Z,5.00
2023-07-22T21:13:00.137Z,4.07
2023-07-22T21:15:28.104Z,4.43
2023-07-22T21:17:56.208Z,7.00
2023-07-22T21:20:24.207Z,4.03
2023-07-22T21:22:52.144Z,4.60
2023-07-22T21:25:21.500Z,4.17
2023-07-22T21:27:49.485Z,4.50
2023-07-22T21:30:18.124Z,4.53
2023-07-22T21:32:46.263Z,3.70
2023-07-22T21:35:14.719Z,4.20
2023-07-22T21:37:43.044Z,5.43
2023-07-22T21:40:11.465Z,5.23
2023-07-22T21:42:40.840Z,3.87
2023-07-22T21:45:11.741Z,4.47
2023-07-22T21:47:39.919Z,4.57
2023-07-22T21:50:09.466Z,5.03
2023-07-22T21:52:37.725Z,3.90
2023-07-22T21:55:06.749Z,3.83
2023-07-22T21:57:34.783Z,3.77
2023-07-22T22:00:11.227Z,3.90
2023-07-22T22:02:39.546Z,4.10
2023-07-22T22:05:08.703Z,4.13
2023-07-22T22:07:37.912Z,4.43
2023-07-22T22:10:07.185Z,4.70
2023-07-22T22:12:35.136Z,3.83
2023-07-22T22:15:04.813Z,4.47
2023-07-22T22:17:34.340Z,3.87
2023-07-22T22:20:05.368Z,4.10
2023-07-22T22:22:33.359Z,4.60
2023-07-22T22:25:01.389Z,4.00
2023-07-22T22:27:29.374Z,3.70
2023-07-22T22:29:57.410Z,5.40
2023-07-22T22:32:26.797Z,4.63
2023-07-22T22:34:55.531Z,4.23
2023-07-22T22:37:23.504Z,4.60
2023-07-22T22:39:51.527Z,4.23
2023-07-22T22:42:19.494Z,4.00
2023-07-22T22:44:47.480Z,4.67
2023-07-22T22:47:15.492Z,5.57
2023-07-22T22:49:44.823Z,4.50
2023-07-22T22:52:12.810Z,4.00
2023-07-22T22:54:40.783Z,3.77
2023-07-22T22:57:08.915Z,3.50
2023-07-22T22:59:36.945Z,4.67
2023-07-22T23:02:05.588Z,3.80
2023-07-22T23:04:33.570Z,3.73
2023-07-22T23:07:02.955Z,3.73
2023-07-22T23:09:31.036Z,6.60
2023-07-22T23:11:59.810Z,5.07
2023-07-22T23:14:27.877Z,4.60
2023-07-22T23:16:55.873Z,3.90
2023-07-22T23:19:23.905Z,4.80
2023-07-22T23:21:51.889Z,3.60
2023-07-22T23:24:21.219Z,4.50
2023-07-22T23:26:49.660Z,3.47
2023-07-22T23:29:17.644Z,3.70
2023-07-22T23:31:45.667Z,3.50
2023-07-22T23:34:13.666Z,8.43
2023-07-22T23:36:41.638Z,4.20
2023-07-22T23:39:09.658Z,3.10
2023-07-22T23:41:38.970Z,3.53
2023-07-22T23:44:06.945Z,3.73
2023-07-22T23:46:34.942Z,3.70
2023-07-22T23:49:02.949Z,3.33
2023-07-22T23:51:31.024Z,3.87
2023-07-22T23:53:59.059Z,3.77
2023-07-22T23:56:27.083Z,4.70
2023-07-22T23:58:56.520Z,4.47
